Time;durP1;ratioP1;P1;durP2;ratioP2;P2;SDS_P1;SDS_P2;PMS_P1;PMS_P2;Temp;Humidity;BMP_temperature;BMP_pressure;BME280_temperature;BME280_humidity;BME280_pressure;Samples;Min_cycle;Max_cycle;Signal;HPM_P1;HPM_P2
2022/10/25 00:02:16;;;;;;;;;;;;;;;17.65;70.25;100112.22;4972047;28;19922;-69
2022/10/25 00:04:41;;;;;;;;;;;;;;;17.62;70.42;100106.22;4973760;28;19918;-68
2022/10/25 00:07:07;;;;;;;;;;;;;;;17.56;70.52;100107.41;4971747;28;19929;-68
2022/10/25 00:09:32;;;;;;;;;;;;;;;17.44;71.18;100113.41;4972767;28;19922;-68
2022/10/25 00:11:57;;;;;;;;;;;;;;;17.52;70.97;100105.88;5005250;28;19918;-68
2022/10/25 00:14:23;;;;;;;;;;;;;;;17.57;70.27;100114.44;4976662;28;20381;-68
2022/10/25 00:16:48;;;;;;;;;;;;;;;17.55;70.56;100110.13;4977414;28;19918;-69
2022/10/25 00:19:13;;;;;;;;;;;;;;;17.48;70.43;100109.63;4977460;28;19922;-67
2022/10/25 00:21:39;;;;;;;;;;;;;;;17.49;70.66;100122.81;4975856;28;19918;-67
2022/10/25 00:24:05;;;;;;;;;;;;;;;17.46;70.58;100117.66;4977700;28;20362;-68
2022/10/25 00:26:30;;;;;;;;;;;;;;;17.48;70.13;100125.56;4976096;28;20021;-68
2022/10/25 00:28:55;;;;;;;;;;;;;;;17.45;70.19;100123.94;4976168;28;20027;-67
2022/10/25 00:31:22;;;;;;;;;;;;;;;17.42;70.12;100125.91;4977215;28;19914;-67
2022/10/25 00:33:47;;;;;;;;;;;;;;;17.02;71.44;100122.69;4977359;28;20378;-67
2022/10/25 00:36:14;;;;;;;;;;;;;;;17.21;71.06;100117.28;4975891;28;19964;-66
2022/10/25 00:38:39;;;;;;;;;;;;;;;17.30;70.90;100122.09;4977901;28;19917;-69
2022/10/25 00:41:05;;;;;;;;;;;;;;;17.30;71.30;100116.78;4976548;28;20384;-67
2022/10/25 00:43:38;;;;;;;;;;;;;;;17.29;71.19;100120.38;4976305;28;19917;-68
2022/10/25 00:46:06;;;;;;;;;;;;;;;17.05;71.57;100116.38;4975750;28;19918;-67
2022/10/25 00:48:32;;;;;;;;;;;;;;;16.67;73.51;100119.16;4975133;28;19977;-68
2022/10/25 00:50:57;;;;;;;;;;;;;;;16.64;73.60;100122.84;4976933;28;20333;-69
2022/10/25 00:53:27;;;;;;;;;;;;;;;16.80;73.21;100122.13;4975761;28;20408;-68
2022/10/25 00:55:54;;;;;;;;;;;;;;;16.82;73.11;100118.44;4975408;28;19968;-68
2022/10/25 00:58:22;;;;;;;;;;;;;;;16.89;72.53;100117.19;4976858;28;20370;-67
2022/10/25 01:00:47;;;;;;;;;;;;;;;16.92;72.52;100121.47;4976808;28;19941;-67
2022/10/25 01:03:14;;;;;;;;;;;;;;;16.98;72.04;100110.53;4975904;28;20020;-66
2022/10/25 01:05:40;;;;;;;;;;;;;;;17.18;71.10;100114.78;4975687;28;19922;-67
2022/10/25 01:08:05;;;;;;;;;;;;;;;17.27;71.70;100114.28;4975175;28;20021;-67
2022/10/25 01:10:31;;;;;;;;;;;;;;;17.56;70.30;100119.84;4975195;28;20305;-67
2022/10/25 01:12:56;;;;;;;;;;;;;;;17.68;69.51;100120.03;4976137;28;19922;-67
2022/10/25 01:15:23;;;;;;;;;;;;;;;17.72;69.61;100123.38;4974935;28;19928;-66
2022/10/25 01:18:00;;;;;;;;;;;;;;;17.80;69.43;100123.84;4976307;28;19976;-67
2022/10/25 01:20:40;;;;;;;;;;;;;;;17.76;68.93;100118.78;4976016;28;19918;-67
2022/10/25 01:23:15;;;;;;;;;;;;;;;17.86;68.79;100119.97;4976187;28;19925;-67
2022/10/25 01:25:43;;;;;;;;;;;;;;;17.81;69.08;100122.88;4969590;28;19933;-67
2022/10/25 01:28:11;;;;;;;;;;;;;;;17.83;69.13;100121.00;4975257;28;19918;-67
2022/10/25 01:30:55;;;;;;;;;;;;;;;17.82;68.89;100108.66;4976344;28;19925;-67
2022/10/25 01:33:23;;;;;;;;;;;;;;;17.85;68.99;100107.63;4975612;28;19926;-67
2022/10/25 01:35:48;;;;;;;;;;;;;;;19.58;64.30;100113.31;4976475;28;19926;-67
2022/10/25 01:38:16;;;;;;;;;;;;;;;18.30;66.91;100113.94;4976193;28;20132;-67
2022/10/25 01:40:48;;;;;;;;;;;;;;;18.15;67.40;100119.19;4975301;28;19929;-67
2022/10/25 01:43:21;;;;;;;;;;;;;;;18.10;67.28;100115.06;4974938;28;19934;-65
2022/10/25 01:46:00;;;;;;;;;;;;;;;17.95;67.92;100119.44;4974929;28;20005;-66
2022/10/25 01:48:28;;;;;;;;;;;;;;;17.90;68.26;100110.88;4975754;28;19928;-67
2022/10/25 01:50:53;;;;;;;;;;;;;;;17.83;68.85;100106.84;4975310;28;19918;-69
2022/10/25 01:53:19;;;;;;;;;;;;;;;17.85;68.45;100111.16;4974820;28;19940;-67
2022/10/25 01:55:50;;;;;;;;;;;;;;;17.88;68.66;100107.47;4975655;28;20029;-68
2022/10/25 01:58:18;;;;;;;;;;;;;;;17.70;68.70;100110.16;4974967;28;19957;-66
2022/10/25 02:00:57;;;;;;;;;;;;;;;17.76;68.83;100114.31;4975715;28;20384;-67
2022/10/25 02:03:25;;;;;;;;;;;;;;;17.84;68.75;100112.09;4972477;28;19961;-68
2022/10/25 02:06:24;;;;;;;;;;;;;;;17.84;68.72;100106.78;4974733;28;20289;-68
2022/10/25 02:08:54;;;;;;;;;;;;;;;17.92;67.92;100111.66;4958906;28;19950;-66
2022/10/25 02:11:20;;;;;;;;;;;;;;;17.86;68.14;100109.34;4973548;28;19925;-68
2022/10/25 02:13:51;;;;;;;;;;;;;;;17.80;68.21;100109.69;4975975;28;19917;-68
2022/10/25 02:16:20;;;;;;;;;;;;;;;17.71;68.69;100111.91;4976181;28;19956;-68
2022/10/25 02:18:47;;;;;;;;;;;;;;;17.69;68.73;100107.59;4975280;28;20389;-68
2022/10/25 02:21:14;;;;;;;;;;;;;;;17.73;68.56;100106.47;4974970;28;19918;-68
2022/10/25 02:23:41;;;;;;;;;;;;;;;17.69;68.59;100103.13;4975308;28;19918;-68
2022/10/25 02:26:08;;;;;;;;;;;;;;;17.74;68.38;100102.88;4975853;28;20347;-68
2022/10/25 02:28:36;;;;;;;;;;;;;;;17.73;68.58;100106.47;4976216;28;19949;-68
2022/10/25 02:31:02;;;;;;;;;;;;;;;17.74;68.74;100102.88;4975105;28;19918;-67
2022/10/25 02:33:27;;;;;;;;;;;;;;;17.64;68.66;100099.03;4956896;28;19937;-67
2022/10/25 02:36:05;;;;;;;;;;;;;;;17.65;68.75;100101.59;4971639;28;19973;-67
2022/10/25 02:38:30;;;;;;;;;;;;;;;17.75;68.23;100107.28;4974638;28;19929;-69
2022/10/25 02:40:56;;;;;;;;;;;;;;;17.64;68.75;100099.88;4975749;28;19917;-69
2022/10/25 02:43:21;;;;;;;;;;;;;;;17.80;68.36;100099.94;4975021;28;19928;-68
2022/10/25 02:45:47;;;;;;;;;;;;;;;17.80;68.11;100104.38;4973769;28;19922;-68
2022/10/25 02:48:12;;;;;;;;;;;;;;;17.60;68.63;100102.81;4972264;28;19925;-68
2022/10/25 02:50:37;;;;;;;;;;;;;;;17.73;68.34;100103.81;4974965;28;19929;-68
2022/10/25 02:53:03;;;;;;;;;;;;;;;17.56;68.85;100102.09;4974949;28;20294;-67
2022/10/25 02:55:28;;;;;;;;;;;;;;;17.40;70.81;100110.06;4974726;28;19922;-68
2022/10/25 02:57:53;;;;;;;;;;;;;;;17.43;69.23;100096.63;4975707;28;19918;-68
2022/10/25 03:00:18;;;;;;;;;;;;;;;17.34;69.33;100094.44;4974556;28;20441;-68
2022/10/25 03:02:44;;;;;;;;;;;;;;;17.27;69.78;100092.19;4975081;28;19924;-68
2022/10/25 03:05:09;;;;;;;;;;;;;;;17.35;69.44;100104.09;4974057;28;19922;-68
2022/10/25 03:07:34;;;;;;;;;;;;;;;17.31;69.43;100099.91;4973409;28;19933;-68
2022/10/25 03:10:00;;;;;;;;;;;;;;;17.27;69.74;100101.00;4974831;28;20014;-67
2022/10/25 03:12:25;;;;;;;;;;;;;;;17.18;69.90;100104.16;4974049;28;19928;-68
2022/10/25 03:14:50;;;;;;;;;;;;;;;17.27;69.54;100100.16;4975042;28;19930;-68
2022/10/25 03:17:15;;;;;;;;;;;;;;;16.99;70.49;100105.16;4968686;28;19917;-68
2022/10/25 03:19:41;;;;;;;;;;;;;;;17.23;69.97;100110.09;4975014;28;19965;-67
2022/10/25 03:22:06;;;;;;;;;;;;;;;17.15;70.30;100102.53;4975313;28;19917;-68
2022/10/25 03:24:31;;;;;;;;;;;;;;;17.16;70.29;100100.75;4975315;28;19922;-66
2022/10/25 03:26:57;;;;;;;;;;;;;;;17.20;69.92;100104.97;4974647;28;20364;-67
2022/10/25 03:29:22;;;;;;;;;;;;;;;17.29;70.13;100104.47;4974206;28;19922;-68
2022/10/25 03:31:47;;;;;;;;;;;;;;;17.41;69.67;100092.31;4974823;28;19925;-68
2022/10/25 03:34:12;;;;;;;;;;;;;;;17.34;69.87;100096.25;4972269;28;20322;-67
2022/10/25 03:36:38;;;;;;;;;;;;;;;17.49;69.16;100090.94;4973691;28;19918;-67
2022/10/25 03:39:03;;;;;;;;;;;;;;;17.49;69.11;100096.25;4975014;28;19918;-68
2022/10/25 03:41:28;;;;;;;;;;;;;;;17.63;68.59;100094.63;4975236;28;20350;-68
2022/10/25 03:43:53;;;;;;;;;;;;;;;17.49;68.85;100093.59;4975084;28;20005;-68
2022/10/25 03:46:19;;;;;;;;;;;;;;;17.34;69.75;100085.63;4974847;28;19922;-67
2022/10/25 03:48:44;;;;;;;;;;;;;;;17.26;69.51;100094.00;4989990;28;19929;-68
2022/10/25 03:51:09;;;;;;;;;;;;;;;16.98;70.42;100095.47;4993564;28;20404;-68
2022/10/25 03:53:35;;;;;;;;;;;;;;;16.93;70.63;100092.19;4994097;28;20013;-67
2022/10/25 03:56:00;;;;;;;;;;;;;;;16.87;70.38;100091.66;4994205;28;19913;-67
2022/10/25 03:58:25;;;;;;;;;;;;;;;16.79;70.83;100093.84;4983223;28;20329;-67
2022/10/25 04:00:50;;;;;;;;;;;;;;;17.17;69.40;100090.03;4973772;28;19918;-67
2022/10/25 04:03:16;;;;;;;;;;;;;;;17.16;69.06;100092.78;4974436;28;19957;-68
2022/10/25 04:05:41;;;;;;;;;;;;;;;17.08;69.25;100093.19;4974443;28;20020;-66
2022/10/25 04:08:06;;;;;;;;;;;;;;;17.03;69.69;100094.34;4973793;28;20292;-65
2022/10/25 04:10:32;;;;;;;;;;;;;;;16.73;70.97;100101.19;4973451;28;19929;-66
2022/10/25 04:12:58;;;;;;;;;;;;;;;16.92;70.25;100095.78;4973661;28;19914;-67
2022/10/25 04:15:23;;;;;;;;;;;;;;;16.86;70.40;100089.94;4974458;28;20369;-66
2022/10/25 04:17:49;;;;;;;;;;;;;;;16.88;69.82;100088.09;4974505;28;19909;-67
2022/10/25 04:20:15;;;;;;;;;;;;;;;16.87;70.21;100087.19;4973967;28;19949;-68
2022/10/25 04:22:40;;;;;;;;;;;;;;;16.82;70.29;100089.25;4974608;28;19949;-67
2022/10/25 04:25:05;;;;;;;;;;;;;;;16.85;70.05;100086.44;4970267;28;19925;-66
2022/10/25 04:27:31;;;;;;;;;;;;;;;16.70;70.83;100095.16;4973013;28;19955;-68
2022/10/25 04:29:56;;;;;;;;;;;;;;;16.76;70.08;100094.88;4973261;28;19977;-68
2022/10/25 04:32:21;;;;;;;;;;;;;;;16.72;70.69;100098.59;4971877;28;20296;-67
2022/10/25 04:34:46;;;;;;;;;;;;;;;16.65;70.87;100103.34;4972693;28;19926;-68
2022/10/25 04:37:12;;;;;;;;;;;;;;;16.65;70.98;100106.00;4967964;28;19929;-69
2022/10/25 04:39:37;;;;;;;;;;;;;;;16.65;70.49;100103.34;4968545;28;19918;-69
2022/10/25 04:42:03;;;;;;;;;;;;;;;16.63;70.86;100104.34;4971142;28;19976;-67
2022/10/25 04:44:28;;;;;;;;;;;;;;;16.64;70.63;100104.28;4971573;28;19957;-68
2022/10/25 04:46:53;;;;;;;;;;;;;;;16.44;71.18;100115.91;4974025;28;19933;-68
2022/10/25 04:49:19;;;;;;;;;;;;;;;16.28;72.16;100112.31;4975079;28;19984;-68
2022/10/25 04:51:44;;;;;;;;;;;;;;;16.50;71.47;100106.78;4973605;28;19926;-69
2022/10/25 04:54:12;;;;;;;;;;;;;;;16.59;70.68;100110.75;4971674;28;19929;-68
2022/10/25 04:56:38;;;;;;;;;;;;;;;16.56;70.94;100105.63;4972894;28;20025;-68
2022/10/25 04:59:03;;;;;;;;;;;;;;;16.62;70.59;100102.66;4974621;28;19941;-68
2022/10/25 05:01:28;;;;;;;;;;;;;;;16.66;70.19;100101.56;4973476;28;19929;-68
2022/10/25 05:03:53;;;;;;;;;;;;;;;16.21;71.59;100108.22;4976279;28;19918;-67
2022/10/25 05:06:22;;;;;;;;;;;;;;;16.11;71.93;100113.09;4975306;28;19922;-69
2022/10/25 05:08:48;;;;;;;;;;;;;;;16.05;72.20;100109.91;4978122;28;19917;-68
2022/10/25 05:11:15;;;;;;;;;;;;;;;16.09;72.08;100108.84;4977227;28;20026;-69
2022/10/25 05:13:40;;;;;;;;;;;;;;;15.96;72.32;100106.78;4975898;28;19922;-67
2022/10/25 05:16:06;;;;;;;;;;;;;;;15.98;72.75;100107.56;4977251;28;19925;-68
2022/10/25 05:18:32;;;;;;;;;;;;;;;16.01;72.51;100109.19;4975951;28;19918;-68
2022/10/25 05:21:00;;;;;;;;;;;;;;;15.92;72.99;100101.72;4976827;28;20396;-68
2022/10/25 05:23:26;;;;;;;;;;;;;;;15.93;72.61;100114.00;4974739;28;19918;-69
2022/10/25 05:26:01;;;;;;;;;;;;;;;15.89;72.71;100118.59;4975013;28;20008;-69
2022/10/25 05:28:26;;;;;;;;;;;;;;;15.99;72.14;100114.56;4995256;28;20273;-65
2022/10/25 05:30:51;;;;;;;;;;;;;;;16.17;70.86;100117.28;4979734;28;19918;-69
2022/10/25 05:33:17;;;;;;;;;;;;;;;16.01;71.67;100125.97;4996242;28;20021;-69
2022/10/25 05:35:42;;;;;;;;;;;;;;;15.99;71.56;100122.50;4986956;28;19922;-69
2022/10/25 05:38:07;;;;;;;;;;;;;;;15.95;71.65;100120.94;4975197;28;19918;-70
2022/10/25 05:40:32;;;;;;;;;;;;;;;16.20;71.15;100125.06;4977321;28;20381;-69
2022/10/25 05:42:59;;;;;;;;;;;;;;;15.94;71.45;100124.53;4977900;28;19918;-69
2022/10/25 05:45:24;;;;;;;;;;;;;;;15.76;72.21;100133.38;4977403;28;19922;-68
2022/10/25 05:47:49;;;;;;;;;;;;;;;15.87;72.00;100128.38;4986010;28;19921;-69
2022/10/25 05:50:14;;;;;;;;;;;;;;;15.82;72.10;100137.50;4978205;28;19918;-69
2022/10/25 05:52:43;;;;;;;;;;;;;;;15.81;71.88;100136.66;4995179;28;19922;-69
2022/10/25 05:55:08;;;;;;;;;;;;;;;15.82;72.29;100137.50;4985560;28;20008;-69
2022/10/25 05:57:33;;;;;;;;;;;;;;;15.85;71.92;100138.22;4976863;28;20013;-70
2022/10/25 05:59:59;;;;;;;;;;;;;;;15.69;72.79;100131.94;4987777;28;20381;-69
2022/10/25 06:02:24;;;;;;;;;;;;;;;15.85;72.03;100130.28;4992445;28;19937;-68
2022/10/25 06:04:49;;;;;;;;;;;;;;;15.78;72.07;100136.78;4978066;28;20301;-66
2022/10/25 06:07:15;;;;;;;;;;;;;;;16.19;70.56;100142.75;4976492;28;20321;-68
2022/10/25 06:09:40;;;;;;;;;;;;;;;15.88;71.79;100146.03;4981266;28;19922;-68
2022/10/25 06:12:05;;;;;;;;;;;;;;;15.83;71.99;100150.66;4975879;28;19953;-68
2022/10/25 06:14:31;;;;;;;;;;;;;;;15.71;72.43;100152.09;4976683;28;19965;-68
2022/10/25 06:16:56;;;;;;;;;;;;;;;15.69;72.73;100143.38;4976643;28;19921;-68
2022/10/25 06:19:21;;;;;;;;;;;;;;;15.61;73.40;100152.56;4975981;28;20486;-69
2022/10/25 06:21:46;;;;;;;;;;;;;;;15.79;71.87;100151.75;4976260;28;20013;-69
2022/10/25 06:24:12;;;;;;;;;;;;;;;15.91;71.71;100148.50;4976121;28;20013;-69
2022/10/25 06:26:37;;;;;;;;;;;;;;;16.19;70.63;100163.09;4976195;28;19914;-69
2022/10/25 06:29:03;;;;;;;;;;;;;;;16.29;69.89;100167.03;4976618;28;19913;-69
2022/10/25 06:31:29;;;;;;;;;;;;;;;16.26;70.19;100164.53;4976216;28;19984;-69
2022/10/25 06:33:54;;;;;;;;;;;;;;;16.34;69.75;100161.50;4976102;28;20326;-69
2022/10/25 06:36:23;;;;;;;;;;;;;;;16.34;69.84;100157.06;4976019;28;20424;-68
2022/10/25 06:38:49;;;;;;;;;;;;;;;16.37;69.65;100167.53;4976278;28;19972;-69
2022/10/25 06:41:16;;;;;;;;;;;;;;;16.41;69.43;100169.09;4976110;28;20329;-70
2022/10/25 06:43:41;;;;;;;;;;;;;;;16.51;68.99;100167.69;4975979;28;20102;-69
2022/10/25 06:46:12;;;;;;;;;;;;;;;16.46;69.35;100171.50;4975886;28;20028;-71
2022/10/25 06:48:37;;;;;;;;;;;;;;;16.45;69.51;100175.09;4976286;28;20330;-68
2022/10/25 06:51:04;;;;;;;;;;;;;;;16.62;69.29;100171.59;4975194;28;20021;-68
2022/10/25 06:53:29;;;;;;;;;;;;;;;16.67;69.05;100169.56;4976295;28;19918;-68
2022/10/25 06:55:58;;;;;;;;;;;;;;;16.76;69.10;100185.09;4975339;28;20432;-69
2022/10/25 06:58:23;;;;;;;;;;;;;;;16.70;69.04;100182.69;4976029;28;19914;-69
2022/10/25 07:00:48;;;;;;;;;;;;;;;17.03;68.16;100187.25;4975876;28;20021;-69
2022/10/25 07:03:14;;;;;;;;;;;;;;;17.07;67.65;100178.19;4975555;28;20013;-68
2022/10/25 07:05:39;;;;;;;;;;;;;;;17.02;68.09;100182.88;4975582;28;19918;-69
2022/10/25 07:08:04;;;;;;;;;;;;;;;16.91;68.12;100186.94;4974480;28;19961;-68
2022/10/25 07:10:30;;;;;;;;;;;;;;;16.87;68.20;100185.38;4975505;28;20342;-69
2022/10/25 07:12:55;;;;;;;;;;;;;;;16.95;68.01;100177.88;4975604;28;20320;-69
2022/10/25 07:15:23;;;;;;;;;;;;;;;17.21;67.61;100181.00;4975717;28;20423;-68
2022/10/25 07:17:49;;;;;;;;;;;;;;;17.07;67.50;100184.34;4975064;28;19925;-69
2022/10/25 07:20:14;;;;;;;;;;;;;;;17.14;67.78;100179.59;4974367;28;19918;-69
2022/10/25 07:22:39;;;;;;;;;;;;;;;17.35;67.48;100191.75;4974850;28;19933;-70
2022/10/25 07:25:05;;;;;;;;;;;;;;;17.38;66.63;100185.41;4975133;28;19918;-69
2022/10/25 07:27:31;;;;;;;;;;;;;;;17.51;66.88;100178.50;4975118;28;19925;-69
2022/10/25 07:29:57;;;;;;;;;;;;;;;17.54;66.28;100178.34;4974831;28;19918;-69
2022/10/25 07:32:22;;;;;;;;;;;;;;;17.75;66.54;100180.81;4972812;28;19925;-69
2022/10/25 07:34:47;;;;;;;;;;;;;;;17.57;66.15;100172.88;4964309;28;20326;-70
2022/10/25 07:37:12;;;;;;;;;;;;;;;17.51;66.57;100172.34;4974807;28;19936;-69
2022/10/25 07:39:38;;;;;;;;;;;;;;;17.58;66.42;100173.72;4975167;28;19941;-70
2022/10/25 07:42:03;;;;;;;;;;;;;;;17.36;66.99;100174.03;4976055;28;19926;-69
2022/10/25 07:44:28;;;;;;;;;;;;;;;17.36;67.42;100169.59;4974202;28;19950;-70
2022/10/25 07:46:54;;;;;;;;;;;;;;;17.15;68.04;100170.69;4973315;28;19922;-70
2022/10/25 07:49:19;;;;;;;;;;;;;;;17.33;67.51;100164.44;4974395;28;20417;-69
2022/10/25 07:51:45;;;;;;;;;;;;;;;17.33;67.67;100164.44;4974035;28;19976;-69
2022/10/25 07:54:10;;;;;;;;;;;;;;;17.49;68.30;100169.78;4975180;28;20001;-69
2022/10/25 07:56:35;;;;;;;;;;;;;;;17.80;66.99;100174.34;4975160;28;19926;-68
2022/10/25 07:59:01;;;;;;;;;;;;;;;18.01;67.15;100172.28;4975031;28;20061;-69
2022/10/25 08:01:27;;;;;;;;;;;;;;;18.24;66.35;100176.31;4964886;28;19925;-67
2022/10/25 08:03:52;;;;;;;;;;;;;;;18.27;66.08;100173.47;4954341;29;20381;-69
2022/10/25 08:06:18;;;;;;;;;;;;;;;18.12;66.21;100174.34;4956003;29;19937;-69
2022/10/25 08:08:44;;;;;;;;;;;;;;;18.51;66.42;100179.22;4959554;28;20277;-69
2022/10/25 08:11:09;;;;;;;;;;;;;;;18.36;65.83;100167.63;4974024;28;20334;-69
2022/10/25 08:13:35;;;;;;;;;;;;;;;18.57;65.41;100185.97;4973587;28;19915;-69
2022/10/25 08:16:00;;;;;;;;;;;;;;;18.92;65.42;100171.47;4973715;28;19922;-70
2022/10/25 08:18:26;;;;;;;;;;;;;;;18.72;64.72;100181.59;4974737;28;20028;-69
2022/10/25 08:20:51;;;;;;;;;;;;;;;19.10;63.92;100185.50;4975283;28;19965;-70
2022/10/25 08:23:17;;;;;;;;;;;;;;;19.48;63.13;100176.13;4974906;28;20420;-71
2022/10/25 08:25:43;;;;;;;;;;;;;;;19.69;63.10;100183.66;4975023;28;19918;-70
2022/10/25 08:28:08;;;;;;;;;;;;;;;19.77;61.79;100185.84;4974873;28;19925;-70
2022/10/25 08:30:33;;;;;;;;;;;;;;;19.85;61.21;100183.56;4974271;28;19917;-69
2022/10/25 08:32:59;;;;;;;;;;;;;;;19.93;60.75;100185.75;5006003;28;20366;-69
2022/10/25 08:35:24;;;;;;;;;;;;;;;20.10;61.59;100188.19;4976950;28;19961;-70
2022/10/25 08:37:49;;;;;;;;;;;;;;;19.45;61.30;100191.34;4978309;28;19918;-69
2022/10/25 08:40:25;;;;;;;;;;;;;;;19.67;60.69;100192.72;4978443;28;19956;-69
2022/10/25 08:42:57;;;;;;;;;;;;;;;19.85;61.07;100193.38;4978446;28;19917;-69
2022/10/25 08:45:29;;;;;;;;;;;;;;;19.88;60.45;100199.38;4978449;28;19922;-68
2022/10/25 08:47:55;;;;;;;;;;;;;;;19.60;61.15;100194.03;4977839;28;19933;-69
2022/10/25 08:50:39;;;;;;;;;;;;;;;19.73;61.22;100199.47;4978372;28;20421;-69
2022/10/25 08:53:07;;;;;;;;;;;;;;;19.41;60.69;100202.28;4978131;28;19914;-70
2022/10/25 08:55:38;;;;;;;;;;;;;;;19.35;61.20;100205.31;4977870;28;19914;-69
2022/10/25 08:58:07;;;;;;;;;;;;;;;19.61;60.98;100196.63;4977694;28;20412;-71
2022/10/25 09:00:36;;;;;;;;;;;;;;;19.41;60.58;100205.81;4978255;28;20358;-69
2022/10/25 09:03:03;;;;;;;;;;;;;;;19.36;60.32;100209.72;4978349;28;19914;-68
2022/10/25 09:05:40;;;;;;;;;;;;;;;19.51;61.32;100211.44;4978040;28;19914;-69
2022/10/25 09:08:17;;;;;;;;;;;;;;;20.04;60.73;100214.41;4977746;28;19914;-69
2022/10/25 09:10:52;;;;;;;;;;;;;;;19.71;60.00;100210.25;5009044;28;19921;-69
2022/10/25 09:13:53;;;;;;;;;;;;;;;19.52;59.90;100206.97;4977851;28;19949;-69
2022/10/25 09:16:27;;;;;;;;;;;;;;;19.66;59.60;100205.16;4956389;29;19914;-69
2022/10/25 09:18:54;;;;;;;;;;;;;;;19.44;59.87;100216.28;4974815;28;19914;-68
2022/10/25 09:21:22;;;;;;;;;;;;;;;19.76;60.43;100210.81;4977635;28;19914;-68
2022/10/25 09:23:58;;;;;;;;;;;;;;;19.78;58.72;100210.69;4977406;28;19925;-67
2022/10/25 09:26:31;;;;;;;;;;;;;;;19.80;58.80;100222.13;4977524;28;19940;-69
2022/10/25 09:29:09;;;;;;;;;;;;;;;19.97;60.27;100218.41;4977693;28;19918;-69
2022/10/25 09:31:37;;;;;;;;;;;;;;;20.17;59.22;100204.66;4977630;28;20366;-69
2022/10/25 09:34:04;;;;;;;;;;;;;;;20.34;59.66;100211.56;4977670;28;19914;-68
2022/10/25 09:36:35;;;;;;;;;;;;;;;20.55;58.74;100215.56;4976987;28;19937;-69
2022/10/25 09:39:01;;;;;;;;;;;;;;;20.34;58.09;100217.75;4976888;28;19914;-69
2022/10/25 09:41:37;;;;;;;;;;;;;;;20.55;58.47;100225.38;4977078;28;20382;-68
2022/10/25 09:44:11;;;;;;;;;;;;;;;20.14;58.33;100234.19;4975763;28;19918;-69
2022/10/25 09:46:45;;;;;;;;;;;;;;;20.07;58.25;100230.22;4975595;28;19945;-68
2022/10/25 09:49:23;;;;;;;;;;;;;;;20.30;58.38;100228.72;4976794;28;19918;-68
2022/10/25 09:52:06;;;;;;;;;;;;;;;20.30;58.80;100221.56;4977122;28;20041;-68
2022/10/25 09:54:52;;;;;;;;;;;;;;;20.22;58.46;100225.69;4976783;28;19953;-70
2022/10/25 09:57:17;;;;;;;;;;;;;;;20.29;58.41;100227.88;4977201;28;20397;-69
2022/10/25 09:59:44;;;;;;;;;;;;;;;20.29;58.77;100233.22;4977115;28;19918;-70
2022/10/25 10:02:13;;;;;;;;;;;;;;;20.11;58.57;100250.41;4976720;28;19914;-70
2022/10/25 10:04:38;;;;;;;;;;;;;;;19.82;58.94;100231.72;4977128;28;19929;-68
2022/10/25 10:07:12;;;;;;;;;;;;;;;19.97;59.25;100240.59;4976989;28;19918;-69
2022/10/25 10:09:39;;;;;;;;;;;;;;;20.22;59.25;100241.69;4976769;28;19921;-70
2022/10/25 10:12:06;;;;;;;;;;;;;;;20.25;58.09;100236.19;4976627;28;19914;-69
2022/10/25 10:14:34;;;;;;;;;;;;;;;19.81;59.57;100242.50;4976692;28;20270;-70
2022/10/25 10:17:00;;;;;;;;;;;;;;;20.02;59.80;100249.16;4976582;28;19921;-70
2022/10/25 10:19:28;;;;;;;;;;;;;;;20.24;59.42;100248.66;4976466;28;19914;-69
2022/10/25 10:22:01;;;;;;;;;;;;;;;19.80;60.44;100244.31;4976582;28;20001;-70
2022/10/25 10:24:31;;;;;;;;;;;;;;;19.57;59.84;100242.19;4976577;28;20382;-69
2022/10/25 10:26:57;;;;;;;;;;;;;;;19.45;59.59;100241.97;4976435;28;19924;-70
2022/10/25 10:29:25;;;;;;;;;;;;;;;19.59;59.89;100248.25;4976399;28;19937;-69
2022/10/25 10:31:53;;;;;;;;;;;;;;;19.27;60.31;100245.75;4976425;28;19913;-69
2022/10/25 10:34:22;;;;;;;;;;;;;;;19.20;60.89;100244.41;4976647;28;19913;-68
2022/10/25 10:36:59;;;;;;;;;;;;;;;19.61;60.26;100255.25;4976149;28;19914;-69
2022/10/25 10:39:25;;;;;;;;;;;;;;;19.17;59.60;100256.09;4976321;28;19921;-65
2022/10/25 10:42:10;;;;;;;;;;;;;;;18.85;59.80;100257.13;4972389;28;20056;-69
2022/10/25 10:44:36;;;;;;;;;;;;;;;18.73;59.77;100256.00;4973377;28;19989;-69
2022/10/25 10:47:08;;;;;;;;;;;;;;;18.91;59.43;100254.97;4973095;28;20287;-70
2022/10/25 10:49:36;;;;;;;;;;;;;;;19.23;59.85;100248.66;4972959;28;19924;-70
2022/10/25 10:52:02;;;;;;;;;;;;;;;19.43;60.03;100256.34;4971776;28;20008;-70
2022/10/25 10:54:33;;;;;;;;;;;;;;;19.10;59.04;100248.53;4974108;28;20008;-69
2022/10/25 10:57:03;;;;;;;;;;;;;;;19.17;59.75;100245.44;4975559;28;19922;-69
2022/10/25 10:59:37;;;;;;;;;;;;;;;19.32;60.43;100251.66;4973161;28;19941;-70
2022/10/25 11:02:21;;;;;;;;;;;;;;;18.92;59.69;100255.81;4975655;28;20282;-70
2022/10/25 11:04:47;;;;;;;;;;;;;;;19.54;59.74;100259.19;4972902;28;20773;-69
2022/10/25 11:07:19;;;;;;;;;;;;;;;19.55;58.03;100260.94;4974285;28;20369;-69
2022/10/25 11:09:44;;;;;;;;;;;;;;;19.81;58.01;100256.69;4975833;28;19921;-69
2022/10/25 11:12:15;;;;;;;;;;;;;;;20.08;57.09;100258.59;4975959;28;19918;-69
2022/10/25 11:14:41;;;;;;;;;;;;;;;19.97;56.81;100253.06;4976130;28;19918;-68
2022/10/25 11:17:13;;;;;;;;;;;;;;;19.93;56.49;100260.41;4975727;28;19964;-69
2022/10/25 11:19:57;;;;;;;;;;;;;;;19.13;57.74;100248.38;4975397;28;19972;-69
2022/10/25 11:22:25;;;;;;;;;;;;;;;19.14;58.36;100256.25;4975691;28;20422;-68
2022/10/25 11:24:54;;;;;;;;;;;;;;;18.95;58.76;100269.81;4975507;28;19951;-69
2022/10/25 11:27:31;;;;;;;;;;;;;;;19.11;58.68;100266.22;4975443;28;20005;-70
2022/10/25 11:30:12;;;;;;;;;;;;;;;19.65;57.34;100270.09;4975841;28;20016;-68
2022/10/25 11:32:41;;;;;;;;;;;;;;;20.03;56.56;100261.56;4975188;28;19920;-70
2022/10/25 11:35:06;;;;;;;;;;;;;;;20.23;54.87;100268.31;4975285;28;19914;-69
2022/10/25 11:37:37;;;;;;;;;;;;;;;20.46;55.92;100260.63;4975421;28;20255;-69
2022/10/25 11:40:14;;;;;;;;;;;;;;;20.02;55.45;100269.63;4976041;28;19914;-69
2022/10/25 11:42:42;;;;;;;;;;;;;;;20.26;53.49;100273.41;4975605;28;19961;-69
2022/10/25 11:45:18;;;;;;;;;;;;;;;20.34;53.46;100271.13;4974900;28;19993;-69
2022/10/25 11:47:43;;;;;;;;;;;;;;;20.74;53.67;100273.91;4974389;28;20426;-68
2022/10/25 11:50:19;;;;;;;;;;;;;;;20.39;53.38;100278.84;4973790;28;20009;-69
2022/10/25 11:52:50;;;;;;;;;;;;;;;20.46;52.74;100273.97;4973717;28;19964;-68
2022/10/25 11:55:15;;;;;;;;;;;;;;;20.25;53.78;100277.03;4974694;28;20392;-68
2022/10/25 11:57:48;;;;;;;;;;;;;;;20.80;53.71;100278.84;4974072;28;19914;-68
2022/10/25 12:00:15;;;;;;;;;;;;;;;20.37;53.18;100276.25;4975087;28;19961;-69
2022/10/25 12:02:58;;;;;;;;;;;;;;;20.28;53.50;100278.66;4975094;28;19914;-68
2022/10/25 12:05:27;;;;;;;;;;;;;;;19.86;54.09;100291.91;4974647;28;20278;-68
2022/10/25 12:07:59;;;;;;;;;;;;;;;19.76;53.62;100293.44;4975533;28;19922;-68
2022/10/25 12:10:31;;;;;;;;;;;;;;;19.75;53.01;100286.41;4978991;28;19942;-68
2022/10/25 12:13:01;;;;;;;;;;;;;;;19.85;52.99;100287.53;4976620;28;19965;-68
2022/10/25 12:15:47;;;;;;;;;;;;;;;19.65;53.54;100288.75;4979275;28;20317;-69
2022/10/25 12:18:21;;;;;;;;;;;;;;;19.73;53.49;100303.44;4976616;28;19972;-69
2022/10/25 12:20:48;;;;;;;;;;;;;;;19.29;54.27;100294.44;4979215;28;19918;-69
2022/10/25 12:23:16;;;;;;;;;;;;;;;19.25;54.09;100295.59;4994591;28;19922;-69
2022/10/25 12:25:50;;;;;;;;;;;;;;;19.63;53.54;100304.00;4998292;28;19921;-69
2022/10/25 12:28:31;;;;;;;;;;;;;;;19.75;52.86;100298.84;4997743;28;20012;-70
2022/10/25 12:31:05;;;;;;;;;;;;;;;19.65;53.03;100306.56;4998031;28;20051;-69
2022/10/25 12:33:37;;;;;;;;;;;;;;;19.62;53.08;100298.75;4982212;28;20008;-69
2022/10/25 12:36:09;;;;;;;;;;;;;;;20.03;52.70;100301.56;4969489;28;20441;-69
2022/10/25 12:38:36;;;;;;;;;;;;;;;20.18;52.21;100305.91;4959165;29;19954;-67
2022/10/25 12:41:06;;;;;;;;;;;;;;;20.40;51.73;100307.25;4959053;29;19914;-66